createdAt,value
2022-11-16T00:02:21.028Z,90.52
2022-11-16T00:04:49.072Z,89.61
2022-11-16T00:07:17.272Z,89.78
2022-11-16T00:09:45.373Z,88.27
2022-11-16T00:12:13.859Z,87.98
2022-11-16T00:14:41.747Z,86.80
2022-11-16T00:17:09.690Z,85.72
2022-11-16T00:19:39.140Z,87.06
2022-11-16T00:22:07.095Z,88.19
2022-11-16T00:24:35.077Z,86.94
2022-11-16T00:27:03.030Z,86.17
2022-11-16T00:29:31.446Z,85.93
2022-11-16T00:31:59.608Z,84.65
2022-11-16T00:34:28.666Z,86.12
2022-11-16T00:36:58.115Z,85.89
2022-11-16T00:39:26.348Z,84.17
2022-11-16T00:41:54.283Z,85.42
2022-11-16T00:44:22.598Z,85.06
2022-11-16T00:46:50.600Z,84.61
2022-11-16T00:49:18.527Z,86.46
2022-11-16T00:51:46.535Z,85.17
2022-11-16T00:54:15.862Z,85.91
2022-11-16T00:56:43.954Z,89.11
2022-11-16T00:59:13.245Z,87.99
2022-11-16T01:01:43.414Z,88.64
2022-11-16T01:04:11.532Z,87.09
2022-11-16T01:06:39.451Z,88.95
2022-11-16T01:09:07.435Z,88.23
2022-11-16T01:11:53.951Z,88.52
2022-11-16T01:14:21.921Z,86.58
2022-11-16T01:16:50.731Z,85.26
2022-11-16T01:19:18.931Z,85.05
2022-11-16T01:21:46.973Z,83.74
2022-11-16T01:24:15.179Z,84.43
2022-11-16T01:26:44.574Z,86.33
2022-11-16T01:29:12.868Z,87.58
2022-11-16T01:31:45.332Z,85.60
2022-11-16T01:34:13.482Z,84.82
2022-11-16T01:36:41.384Z,84.78
2022-11-16T01:39:09.500Z,83.92
2022-11-16T01:41:48.225Z,85.37
2022-11-16T01:44:58.614Z,85.50
2022-11-16T01:47:26.977Z,84.50
2022-11-16T01:50:00.688Z,85.52
2022-11-16T01:52:34.972Z,85.91
2022-11-16T01:55:04.873Z,85.37
2022-11-16T01:57:49.084Z,86.53
2022-11-16T02:00:19.592Z,85.79
2022-11-16T02:03:01.188Z,84.60
2022-11-16T02:06:13.151Z,83.90
2022-11-16T02:09:13.788Z,82.76
2022-11-16T02:12:17.944Z,82.59
2022-11-16T02:15:05.352Z,83.18
2022-11-16T02:17:42.825Z,83.39
2022-11-16T02:20:55.850Z,82.96
2022-11-16T02:23:51.704Z,81.26
2022-11-16T02:26:36.092Z,82.37
2022-11-16T02:29:19.968Z,83.98
2022-11-16T02:31:52.107Z,85.30
2022-11-16T02:34:22.329Z,87.49
2022-11-16T02:36:54.382Z,87.97
2022-11-16T02:39:27.240Z,90.10
2022-11-16T02:41:57.713Z,88.92
2022-11-16T02:44:34.056Z,87.74
2022-11-16T02:47:05.914Z,86.16
2022-11-16T02:49:37.904Z,87.71
2022-11-16T02:52:06.208Z,88.41
2022-11-16T02:54:34.120Z,89.50
2022-11-16T02:57:28.295Z,87.34
2022-11-16T03:00:00.100Z,86.69
2022-11-16T03:02:37.511Z,89.33
2022-11-16T03:05:10.596Z,90.86
2022-11-16T03:07:49.004Z,88.49
2022-11-16T03:10:34.289Z,88.13
2022-11-16T03:13:08.395Z,88.17
2022-11-16T03:15:42.361Z,90.21
2022-11-16T03:18:16.710Z,88.43
2022-11-16T03:20:45.555Z,88.87
2022-11-16T03:23:14.975Z,86.36
2022-11-16T03:25:50.353Z,85.60
2022-11-16T03:28:25.515Z,87.23
2022-11-16T03:31:02.909Z,85.63
2022-11-16T03:33:36.739Z,85.74
2022-11-16T03:36:10.161Z,88.64
2022-11-16T03:38:41.800Z,87.17
2022-11-16T03:41:12.099Z,86.78
2022-11-16T03:43:41.466Z,85.86
2022-11-16T03:46:11.460Z,84.96
2022-11-16T03:48:41.897Z,84.69
2022-11-16T03:51:16.070Z,86.62
2022-11-16T03:53:44.119Z,86.35
2022-11-16T03:56:14.585Z,88.11
2022-11-16T03:58:42.544Z,86.77
2022-11-16T04:01:12.056Z,86.60
2022-11-16T04:03:41.276Z,86.03
2022-11-16T04:06:29.180Z,89.92
2022-11-16T04:09:14.617Z,88.23
2022-11-16T04:12:00.906Z,88.08
2022-11-16T04:14:47.171Z,89.05
2022-11-16T04:17:38.324Z,89.46
2022-11-16T04:20:24.656Z,87.52
2022-11-16T04:23:17.278Z,88.11
2022-11-16T04:25:47.816Z,88.89
2022-11-16T04:28:19.704Z,89.68
2022-11-16T04:31:23.385Z,90.71
2022-11-16T04:34:22.306Z,89.79
2022-11-16T04:37:10.839Z,89.04
2022-11-16T04:39:40.417Z,89.53
2022-11-16T04:42:14.972Z,87.25
2022-11-16T04:45:01.912Z,87.80
2022-11-16T04:47:36.613Z,88.80
2022-11-16T04:50:07.023Z,90.48
2022-11-16T04:52:35.240Z,90.81
2022-11-16T04:55:04.725Z,89.80
2022-11-16T04:57:33.677Z,88.45
2022-11-16T05:00:01.703Z,89.65
2022-11-16T05:02:30.741Z,90.10
2022-11-16T05:04:59.920Z,89.39
2022-11-16T05:07:30.969Z,88.86
2022-11-16T05:10:07.019Z,91.88
2022-11-16T05:12:36.278Z,91.89
2022-11-16T05:15:08.138Z,90.70
2022-11-16T05:17:36.479Z,92.45
2022-11-16T05:20:29.895Z,93.96
2022-11-16T05:23:05.063Z,92.75
2022-11-16T05:25:37.137Z,92.34
2022-11-16T05:28:08.458Z,91.14
2022-11-16T05:30:40.757Z,91.09
2022-11-16T05:33:09.097Z,89.87
2022-11-16T05:35:41.103Z,90.29
2022-11-16T05:38:10.736Z,91.36
2022-11-16T05:40:45.548Z,90.11
2022-11-16T05:43:13.813Z,92.87
2022-11-16T05:45:50.214Z,91.79
2022-11-16T05:48:18.182Z,91.69
2022-11-16T05:50:46.240Z,91.49
2022-11-16T05:53:24.917Z,91.70
2022-11-16T05:55:53.537Z,91.23
2022-11-16T05:58:22.468Z,90.84
2022-11-16T06:00:52.152Z,93.71
2022-11-16T06:03:21.164Z,92.63
2022-11-16T06:05:53.213Z,91.67
2022-11-16T06:08:21.440Z,90.43
2022-11-16T06:10:54.472Z,89.17
2022-11-16T06:13:22.769Z,89.10
2022-11-16T06:15:55.501Z,88.26
2022-11-16T06:18:24.071Z,89.20
2022-11-16T06:20:52.290Z,89.48
2022-11-16T06:23:21.881Z,88.36
2022-11-16T06:25:55.984Z,87.17
2022-11-16T06:28:26.448Z,87.70
2022-11-16T06:30:55.666Z,86.80
2022-11-16T06:33:29.649Z,87.77
2022-11-16T06:36:02.066Z,86.79
2022-11-16T06:38:30.171Z,87.01
2022-11-16T06:41:01.431Z,86.44
2022-11-16T06:43:31.266Z,87.22
2022-11-16T06:46:01.288Z,88.55
2022-11-16T06:48:29.412Z,88.17
2022-11-16T06:50:57.563Z,87.34
2022-11-16T06:53:29.253Z,87.00
2022-11-16T06:56:04.155Z,86.66
2022-11-16T06:58:35.713Z,86.92
2022-11-16T07:01:08.229Z,86.56
2022-11-16T07:03:38.843Z,84.99
2022-11-16T07:06:09.839Z,85.46
2022-11-16T07:08:39.617Z,85.30
2022-11-16T07:11:10.478Z,87.24
2022-11-16T07:13:39.664Z,88.04
2022-11-16T07:16:12.405Z,86.76
2022-11-16T07:18:46.111Z,86.25
2022-11-16T07:21:16.867Z,85.45
2022-11-16T07:23:46.079Z,84.64
2022-11-16T07:26:20.514Z,85.36
2022-11-16T07:28:54.073Z,85.33
2022-11-16T07:31:23.739Z,85.47
2022-11-16T07:34:11.624Z,89.91
2022-11-16T07:36:45.829Z,87.69
2022-11-16T07:39:14.302Z,87.96
2022-11-16T07:41:45.202Z,88.06
2022-11-16T07:44:26.289Z,87.74
2022-11-16T07:47:07.632Z,88.35
2022-11-16T07:49:37.238Z,86.40
2022-11-16T07:52:11.323Z,88.94
2022-11-16T07:54:51.519Z,89.28
2022-11-16T07:57:21.822Z,87.84
2022-11-16T07:59:50.699Z,86.58
2022-11-16T08:02:19.038Z,86.49
2022-11-16T08:04:47.169Z,87.85
2022-11-16T08:07:16.582Z,87.94
2022-11-16T08:09:52.046Z,87.11
2022-11-16T08:12:22.989Z,85.78
2022-11-16T08:14:50.986Z,86.37
2022-11-16T08:17:18.940Z,86.18
2022-11-16T08:19:46.911Z,87.75
2022-11-16T08:22:17.116Z,89.66
2022-11-16T08:24:46.499Z,88.83
2022-11-16T08:27:16.994Z,89.96
2022-11-16T08:29:49.100Z,87.02
2022-11-16T08:32:17.183Z,88.56
2022-11-16T08:34:45.598Z,88.57
2022-11-16T08:37:14.289Z,87.55
2022-11-16T08:39:46.243Z,88.18
2022-11-16T08:42:14.518Z,89.30
2022-11-16T08:44:46.970Z,89.48
2022-11-16T08:47:18.123Z,90.98
2022-11-16T08:49:50.140Z,88.69
2022-11-16T08:52:20.297Z,88.07
2022-11-16T08:54:50.549Z,88.07
2022-11-16T08:57:19.024Z,88.61
2022-11-16T08:59:50.127Z,86.34
2022-11-16T09:02:25.349Z,87.32
2022-11-16T09:04:53.735Z,85.87
2022-11-16T09:07:22.429Z,87.65
2022-11-16T09:09:50.339Z,88.22
2022-11-16T09:12:18.292Z,87.22
2022-11-16T09:14:46.253Z,84.77
2022-11-16T09:17:18.810Z,85.73
2022-11-16T09:19:51.293Z,86.57
2022-11-16T09:22:19.375Z,85.80
2022-11-16T09:24:47.403Z,85.61
2022-11-16T09:27:16.510Z,87.69
2022-11-16T09:29:44.406Z,86.81
2022-11-16T09:32:12.328Z,86.63
2022-11-16T09:34:40.257Z,84.74
2022-11-16T09:37:09.873Z,85.99
2022-11-16T09:39:37.782Z,86.16
2022-11-16T09:42:26.707Z,84.85
2022-11-16T09:45:04.274Z,84.58
2022-11-16T09:47:50.189Z,84.11
2022-11-16T09:50:37.179Z,84.02
2022-11-16T09:53:23.658Z,84.05
2022-11-16T09:55:54.348Z,83.68
2022-11-16T09:58:28.031Z,84.93
2022-11-16T10:01:01.147Z,82.92
2022-11-16T10:03:33.379Z,84.83
2022-11-16T10:06:04.431Z,82.90
2022-11-16T10:08:44.271Z,81.65
2022-11-16T10:11:38.142Z,83.05
2022-11-16T10:14:14.862Z,81.97
2022-11-16T10:16:50.868Z,83.77
2022-11-16T10:19:29.002Z,83.30
2022-11-16T10:22:04.978Z,81.60
2022-11-16T10:24:50.968Z,79.94
2022-11-16T10:27:45.191Z,80.03
2022-11-16T10:30:15.939Z,79.77
2022-11-16T10:32:51.150Z,80.40
2022-11-16T10:35:25.328Z,80.44
2022-11-16T10:37:53.506Z,79.98
2022-11-16T10:40:25.004Z,81.55
2022-11-16T10:43:01.316Z,81.04
2022-11-16T10:45:36.509Z,82.66
2022-11-16T10:48:16.840Z,82.29
2022-11-16T10:50:48.094Z,83.56
2022-11-16T10:53:26.437Z,82.47
2022-11-16T10:56:12.099Z,81.79
2022-11-16T10:58:52.331Z,81.19
2022-11-16T11:01:38.401Z,80.62
2022-11-16T11:04:21.990Z,82.44
2022-11-16T11:06:51.431Z,83.72
2022-11-16T11:09:28.950Z,81.91
2022-11-16T11:12:31.367Z,83.50
2022-11-16T11:15:06.826Z,82.30
2022-11-16T11:17:36.475Z,79.58
2022-11-16T11:20:06.652Z,79.48
2022-11-16T11:22:42.864Z,79.00
2022-11-16T11:25:22.888Z,78.39
2022-11-16T11:27:53.898Z,79.45
2022-11-16T11:30:23.302Z,77.97
2022-11-16T11:32:52.928Z,80.06
2022-11-16T11:35:25.967Z,80.71
2022-11-16T11:37:57.124Z,81.16
2022-11-16T11:40:26.416Z,79.18
2022-11-16T11:42:59.373Z,78.73
2022-11-16T11:45:35.577Z,81.16
2022-11-16T11:48:07.680Z,80.19
2022-11-16T11:50:46.389Z,80.04
2022-11-16T11:53:25.206Z,80.53
2022-11-16T11:55:58.150Z,81.23
2022-11-16T11:58:32.009Z,81.01
2022-11-16T12:01:25.874Z,79.47
2022-11-16T12:04:26.258Z,80.46
2022-11-16T12:07:02.509Z,80.80
2022-11-16T12:09:37.637Z,78.86
2022-11-16T12:12:23.124Z,80.10
2022-11-16T12:15:23.473Z,79.32
2022-11-16T12:17:59.650Z,77.32
2022-11-16T12:20:35.356Z,79.08
2022-11-16T12:23:28.556Z,78.59
2022-11-16T12:26:03.726Z,78.60
2022-11-16T12:28:52.626Z,77.54
2022-11-16T12:31:43.847Z,78.77
2022-11-16T12:34:21.286Z,80.80
2022-11-16T12:36:57.005Z,80.94
2022-11-16T12:39:27.511Z,80.58
2022-11-16T12:42:24.983Z,80.19
2022-11-16T12:45:06.353Z,78.20
2022-11-16T12:47:43.893Z,78.61
2022-11-16T12:50:36.596Z,84.80
2022-11-16T12:53:20.162Z,79.42
2022-11-16T12:55:51.507Z,77.51
2022-11-16T12:58:28.269Z,77.95
2022-11-16T13:01:04.641Z,77.88
2022-11-16T13:03:40.301Z,77.29
2022-11-16T13:06:12.866Z,78.83
2022-11-16T13:08:53.503Z,77.67
2022-11-16T13:11:24.774Z,78.57
2022-11-16T13:13:57.944Z,79.70
2022-11-16T13:16:25.901Z,77.44
2022-11-16T13:18:55.786Z,76.47
2022-11-16T13:21:34.060Z,78.29
2022-11-16T13:24:13.990Z,77.37
2022-11-16T13:26:49.302Z,76.76
2022-11-16T13:29:30.566Z,78.79
2022-11-16T13:32:05.774Z,77.99
2022-11-16T13:34:38.572Z,77.13
2022-11-16T13:37:48.565Z,77.07
2022-11-16T13:40:28.781Z,77.09
2022-11-16T13:43:08.337Z,75.78
2022-11-16T13:45:40.534Z,75.52
2022-11-16T13:48:18.451Z,76.92
2022-11-16T13:50:53.060Z,76.61
2022-11-16T13:56:21.816Z,78.11
2022-11-16T13:58:55.694Z,76.18
2022-11-16T14:01:23.878Z,74.93
2022-11-16T14:03:53.331Z,74.87
2022-11-16T14:06:58.163Z,75.35
2022-11-16T14:09:44.996Z,74.46
2022-11-16T14:12:52.911Z,74.17
2022-11-16T14:15:23.376Z,74.70
2022-11-16T14:17:59.623Z,74.63
2022-11-16T14:20:57.101Z,74.01
2022-11-16T14:23:37.112Z,75.32
2022-11-16T14:26:14.464Z,76.21
2022-11-16T14:28:55.317Z,76.25
2022-11-16T14:31:25.625Z,78.07
2022-11-16T14:33:56.291Z,76.97
2022-11-16T14:36:41.215Z,75.46
2022-11-16T14:39:18.665Z,75.42
2022-11-16T14:41:48.084Z,75.11
2022-11-16T14:44:19.623Z,76.77
2022-11-16T14:46:47.812Z,76.40
2022-11-16T14:49:20.389Z,77.02
2022-11-16T14:51:52.350Z,77.17
2022-11-16T14:54:29.582Z,77.70
2022-11-16T14:57:00.045Z,78.16
2022-11-16T14:59:28.897Z,77.17
2022-11-16T15:01:57.310Z,78.92
2022-11-16T15:04:27.155Z,79.00
2022-11-16T15:06:58.957Z,79.06
2022-11-16T15:09:31.736Z,78.15
2022-11-16T15:12:19.955Z,77.64
2022-11-16T15:14:51.413Z,79.18
2022-11-16T15:17:22.131Z,77.37
2022-11-16T15:19:57.085Z,78.25
2022-11-16T15:22:27.176Z,77.08
2022-11-16T15:24:58.115Z,77.53
2022-11-16T15:27:36.831Z,77.02
2022-11-16T15:30:14.568Z,77.02
2022-11-16T15:32:44.041Z,77.52
2022-11-16T15:35:19.920Z,77.33
2022-11-16T15:37:48.000Z,77.75
2022-11-16T15:40:17.689Z,76.58
2022-11-16T15:42:45.808Z,77.22
2022-11-16T15:45:23.003Z,77.09
2022-11-16T15:47:53.817Z,77.71
2022-11-16T15:50:24.280Z,79.41
2022-11-16T15:52:55.226Z,78.13
2022-11-16T15:55:32.697Z,77.51
2022-11-16T15:58:22.288Z,78.25
2022-11-16T16:00:50.631Z,77.27
2022-11-16T16:03:23.010Z,76.84
2022-11-16T16:05:51.385Z,76.01
2022-11-16T16:08:34.366Z,74.87
2022-11-16T16:11:06.628Z,76.06
2022-11-16T16:13:37.652Z,74.82
2022-11-16T16:16:27.350Z,75.36
2022-11-16T16:19:00.774Z,74.69
2022-11-16T16:21:42.539Z,76.01
2022-11-16T16:24:12.928Z,76.92
2022-11-16T16:26:42.257Z,74.99
2022-11-16T16:29:10.180Z,76.41
2022-11-16T16:31:38.145Z,75.47
2022-11-16T16:34:12.572Z,74.75
2022-11-16T16:36:40.536Z,75.87
2022-11-16T16:39:08.514Z,76.09
2022-11-16T16:41:36.511Z,76.18
2022-11-16T16:44:14.721Z,75.68
2022-11-16T16:46:42.857Z,75.61
2022-11-16T16:49:11.687Z,75.65
2022-11-16T16:51:39.651Z,75.32
2022-11-16T16:54:07.990Z,75.39
2022-11-16T16:56:35.958Z,76.75
2022-11-16T16:59:04.076Z,75.93
2022-11-16T17:01:33.549Z,74.65
2022-11-16T17:04:01.514Z,76.04
2022-11-16T17:06:30.650Z,76.22
2022-11-16T17:08:58.642Z,75.18
2022-11-16T17:11:26.909Z,75.97
2022-11-16T17:13:54.867Z,74.71
2022-11-16T17:16:22.885Z,75.06
2022-11-16T17:18:56.689Z,74.49
2022-11-16T17:21:24.658Z,74.71
2022-11-16T17:23:52.587Z,74.56
2022-11-16T17:26:20.968Z,73.91
2022-11-16T17:28:49.147Z,74.24
2022-11-16T17:31:17.484Z,74.41
2022-11-16T17:33:45.397Z,74.96
2022-11-16T17:36:15.103Z,74.08
2022-11-16T17:38:43.172Z,74.33
2022-11-16T17:41:13.723Z,75.82
2022-11-16T17:43:42.844Z,74.70
2022-11-16T17:46:12.665Z,73.21
2022-11-16T17:48:42.234Z,74.38
2022-11-16T17:51:10.597Z,72.94
2022-11-16T17:53:40.776Z,75.91
2022-11-16T17:56:09.132Z,74.76
2022-11-16T17:58:37.045Z,74.63
2022-11-16T18:01:05.208Z,73.19
2022-11-16T18:03:33.549Z,72.99
2022-11-16T18:06:04.464Z,73.62
2022-11-16T18:08:33.019Z,74.05
2022-11-16T18:11:06.717Z,73.57
2022-11-16T18:13:35.551Z,74.41
2022-11-16T18:16:05.688Z,73.00
2022-11-16T18:18:34.439Z,72.44
2022-11-16T18:21:02.909Z,73.25
2022-11-16T18:23:30.957Z,72.65
2022-11-16T18:25:58.921Z,73.20
2022-11-16T18:28:30.115Z,72.86
2022-11-16T18:31:04.017Z,73.80
2022-11-16T18:33:32.466Z,72.95
2022-11-16T18:36:00.789Z,73.71
2022-11-16T18:38:28.727Z,73.89
2022-11-16T18:41:16.628Z,71.90
2022-11-16T18:43:50.982Z,71.39
2022-11-16T18:46:19.157Z,70.66
2022-11-16T18:48:47.806Z,71.08
2022-11-16T18:51:16.731Z,70.23
2022-11-16T18:53:45.045Z,70.38
2022-11-16T18:56:13.030Z,71.01
2022-11-16T18:58:50.987Z,69.87
2022-11-16T19:01:24.595Z,70.54
2022-11-16T19:03:53.256Z,72.11
2022-11-16T19:06:22.261Z,70.55
2022-11-16T19:08:56.399Z,70.63
2022-11-16T19:11:25.549Z,70.11
2022-11-16T19:13:55.229Z,68.90
2022-11-16T19:16:25.869Z,68.53
2022-11-16T19:18:54.095Z,67.64
2022-11-16T19:21:23.054Z,69.53
2022-11-16T19:23:52.997Z,70.31
2022-11-16T19:26:23.578Z,68.82
2022-11-16T19:28:55.284Z,70.85
2022-11-16T19:31:26.533Z,69.45
2022-11-16T19:33:56.031Z,69.46
2022-11-16T19:36:25.727Z,69.29
2022-11-16T19:38:53.851Z,71.22
2022-11-16T19:41:22.938Z,71.29
2022-11-16T19:43:52.572Z,70.25
2022-11-16T19:46:21.549Z,68.42
2022-11-16T19:48:51.242Z,69.73
2022-11-16T19:51:21.442Z,70.29
2022-11-16T19:53:49.668Z,70.69
2022-11-16T19:56:19.903Z,70.33
2022-11-16T19:58:48.259Z,71.02
2022-11-16T20:01:18.275Z,69.07
2022-11-16T20:03:47.062Z,68.64
2022-11-16T20:06:18.988Z,68.31
2022-11-16T20:08:49.551Z,69.60
2022-11-16T20:11:20.448Z,68.42
2022-11-16T20:13:48.960Z,70.33
2022-11-16T20:16:18.239Z,69.07
2022-11-16T20:18:47.551Z,68.28
2022-11-16T20:21:20.667Z,67.92
2022-11-16T20:23:48.785Z,68.93
2022-11-16T20:26:16.931Z,67.53
2022-11-16T20:28:45.309Z,67.60
2022-11-16T20:31:15.249Z,66.89
2022-11-16T20:33:43.939Z,69.46
2022-11-16T20:36:12.907Z,69.24
2022-11-16T20:38:42.306Z,68.62
2022-11-16T20:41:11.791Z,68.36
2022-11-16T20:43:40.482Z,67.29
2022-11-16T20:46:09.579Z,67.15
2022-11-16T20:48:38.247Z,67.09
2022-11-16T20:51:07.340Z,67.40
2022-11-16T20:53:35.900Z,68.21
2022-11-16T20:56:07.626Z,68.45
2022-11-16T20:58:36.170Z,68.97
2022-11-16T21:01:05.169Z,69.66
2022-11-16T21:03:33.702Z,69.58
2022-11-16T21:06:01.951Z,69.08
2022-11-16T21:08:30.156Z,68.71
2022-11-16T21:10:58.380Z,68.11
2022-11-16T21:13:45.214Z,67.25
2022-11-16T21:16:15.381Z,67.23
2022-11-16T21:18:43.446Z,68.25
2022-11-16T21:21:13.320Z,69.02
2022-11-16T21:23:45.039Z,68.08
2022-11-16T21:26:15.756Z,67.36
2022-11-16T21:28:45.533Z,69.91
2022-11-16T21:31:15.379Z,69.73
2022-11-16T21:33:44.957Z,69.46
2022-11-16T21:36:14.782Z,68.91
2022-11-16T21:38:43.201Z,69.10
2022-11-16T21:41:12.034Z,68.78
2022-11-16T21:43:40.847Z,68.36
2022-11-16T21:46:12.984Z,70.28
2022-11-16T21:48:41.555Z,69.57
2022-11-16T21:51:10.836Z,69.39
2022-11-16T21:53:39.440Z,69.41
2022-11-16T21:56:08.836Z,68.35
2022-11-16T21:58:36.848Z,68.40
2022-11-16T22:01:04.871Z,69.67
2022-11-16T22:03:34.589Z,69.63
2022-11-16T22:06:22.427Z,69.01
2022-11-16T22:08:50.928Z,69.09
2022-11-16T22:11:22.107Z,69.17
2022-11-16T22:13:51.113Z,67.32
2022-11-16T22:16:20.952Z,67.44
2022-11-16T22:18:50.932Z,68.86
2022-11-16T22:21:18.937Z,67.75
2022-11-16T22:23:46.940Z,67.43
2022-11-16T22:26:15.316Z,68.18
2022-11-16T22:28:43.526Z,69.90
2022-11-16T22:31:13.467Z,69.30
2022-11-16T22:33:42.017Z,69.19
2022-11-16T22:36:11.966Z,69.04
2022-11-16T22:38:40.075Z,68.42
2022-11-16T22:41:08.169Z,70.26
2022-11-16T22:43:37.425Z,70.87
2022-11-16T22:46:06.917Z,69.40
2022-11-16T22:48:37.099Z,66.80
2022-11-16T22:51:07.382Z,68.90
2022-11-16T22:53:37.070Z,69.68
2022-11-16T22:56:07.478Z,70.69
2022-11-16T22:58:35.794Z,68.41
2022-11-16T23:01:04.296Z,68.79
2022-11-16T23:03:32.928Z,68.18
2022-11-16T23:06:01.050Z,69.09
2022-11-16T23:08:29.016Z,66.86
2022-11-16T23:11:21.000Z,67.14
2022-11-16T23:14:07.498Z,67.73
2022-11-16T23:16:35.799Z,68.75
2022-11-16T23:19:24.202Z,68.16
2022-11-16T23:22:09.723Z,68.12
2022-11-16T23:24:55.385Z,67.41
2022-11-16T23:27:31.406Z,67.92
2022-11-16T23:30:01.481Z,68.85
2022-11-16T23:32:30.703Z,67.92
2022-11-16T23:34:58.687Z,67.87
2022-11-16T23:37:26.842Z,68.96
2022-11-16T23:39:54.798Z,69.10
2022-11-16T23:42:41.596Z,69.66
2022-11-16T23:45:10.256Z,70.88
2022-11-16T23:47:38.200Z,70.35
2022-11-16T23:50:06.797Z,68.90
2022-11-16T23:52:34.772Z,70.73
2022-11-16T23:55:02.694Z,68.04
2022-11-16T23:57:32.131Z,68.63
